Time;durP1;ratioP1;P1;durP2;ratioP2;P2;SDS_P1;SDS_P2;PMS_P1;PMS_P2;Temp;Humidity;BMP_temperature;BMP_pressure;BME280_temperature;BME280_humidity;BME280_pressure;Samples;Min_cycle;Max_cycle;Signal;HPM_P1;HPM_P2
2023/03/31 00:01:35;;;;;;;572.30;131.07;;;;;;;-143.29;100.00;62188.47;4915307;29;20127;-93
2023/03/31 00:04:03;;;;;;;572.85;133.82;;;;;;;-143.29;100.00;62188.47;4898867;29;20028;-93
2023/03/31 00:06:29;;;;;;;594.47;145.10;;;;;;;-143.29;100.00;62188.47;4898098;29;20480;-94
2023/03/31 00:08:54;;;;;;;573.28;132.57;;;;;;;-143.29;100.00;62188.47;4899078;29;20039;-94
2023/03/31 00:11:21;;;;;;;580.38;133.15;;;;;;;-143.29;100.00;62188.47;4898083;29;20032;-93
2023/03/31 00:13:46;;;;;;;575.97;130.27;;;;;;;-143.29;100.00;62188.47;4897612;29;20024;-93
2023/03/31 00:16:12;;;;;;;574.78;132.18;;;;;;;-143.29;100.00;62188.47;4897187;29;20383;-92
2023/03/31 00:18:46;;;;;;;578.90;134.68;;;;;;;-143.29;100.00;62188.47;4913511;29;20072;-94
2023/03/31 00:21:23;;;;;;;571.38;132.07;;;;;;;-143.29;100.00;62188.47;4897435;29;20068;-93
2023/03/31 00:23:52;;;;;;;575.75;132.05;;;;;;;-143.29;100.00;62188.47;4897671;29;20020;-94
2023/03/31 00:26:18;;;;;;;573.42;130.35;;;;;;;-143.29;100.00;62188.47;4897914;29;20165;-93
2023/03/31 00:28:43;;;;;;;571.90;131.85;;;;;;;-143.29;100.00;62188.47;4897497;29;20079;-93
2023/03/31 00:31:08;;;;;;;576.72;134.68;;;;;;;-143.29;100.00;62188.47;4896970;29;20028;-93
2023/03/31 00:33:34;;;;;;;574.88;133.43;;;;;;;-143.29;100.00;62188.47;4913258;29;20396;-93
2023/03/31 00:36:00;;;;;;;573.92;133.88;;;;;;;-143.29;100.00;62188.47;4897609;29;20025;-93
2023/03/31 00:38:28;;;;;;;582.15;136.65;;;;;;;-143.29;100.00;62188.47;4912318;29;20040;-92
2023/03/31 00:40:55;;;;;;;575.42;134.05;;;;;;;-143.29;100.00;62188.47;4896849;29;20029;-93
2023/03/31 00:43:32;;;;;;;584.08;136.98;;;;;;;-143.29;100.00;62188.47;4896689;29;20551;-93
2023/03/31 00:46:05;;;;;;;591.13;139.52;;;;;;;-143.29;100.00;62188.47;4912993;29;20021;-94
2023/03/31 00:48:33;;;;;;;585.67;137.10;;;;;;;-143.29;100.00;62188.47;4895633;29;20095;-93
2023/03/31 00:51:03;;;;;;;594.42;139.48;;;;;;;-143.29;100.00;62188.47;4895915;29;20033;-93
2023/03/31 00:53:32;;;;;;;580.00;136.30;;;;;;;-143.29;100.00;62188.47;4896935;29;20510;-94
2023/03/31 00:56:12;;;;;;;585.60;137.45;;;;;;;-143.29;100.00;62188.47;4897244;29;20025;-93
2023/03/31 00:58:42;;;;;;;596.53;139.10;;;;;;;-143.29;100.00;62188.47;4896003;29;20028;-93
2023/03/31 01:01:18;;;;;;;605.05;137.93;;;;;;;-143.29;100.00;62188.47;4896991;29;20052;-93
2023/03/31 01:03:45;;;;;;;591.33;134.90;;;;;;;-143.29;100.00;62188.47;4897213;29;20499;-93
2023/03/31 01:06:12;;;;;;;594.58;135.88;;;;;;;-143.29;100.00;62188.47;4912577;29;20535;-93
2023/03/31 01:08:42;;;;;;;579.97;137.02;;;;;;;-143.29;100.00;62188.47;4912684;29;20033;-92
2023/03/31 01:11:47;;;;;;;588.47;142.32;;;;;;;-143.29;100.00;62188.47;4896765;29;20039;-94
2023/03/31 01:14:41;;;;;;;604.88;140.15;;;;;;;-143.29;100.00;62188.47;4895980;29;20043;-92
2023/03/31 01:17:20;;;;;;;585.00;137.50;;;;;;;-143.29;100.00;62188.47;4896882;29;20060;-93
2023/03/31 01:20:13;;;;;;;581.60;134.90;;;;;;;-143.29;100.00;62188.47;4896750;29;20416;-93
2023/03/31 01:22:59;;;;;;;582.47;137.65;;;;;;;-143.29;100.00;62188.47;4896629;29;20483;-93
2023/03/31 01:26:02;;;;;;;583.28;136.43;;;;;;;-143.29;100.00;62188.47;4897836;29;20025;-93
2023/03/31 01:28:53;;;;;;;590.17;135.70;;;;;;;-143.29;100.00;62188.47;4895649;29;20079;-92
2023/03/31 01:31:43;;;;;;;600.90;138.10;;;;;;;-143.29;100.00;62188.47;4912258;29;20033;-91
2023/03/31 01:34:27;;;;;;;594.00;140.05;;;;;;;-143.29;100.00;62188.47;4896396;29;20040;-91
2023/03/31 01:37:14;;;;;;;599.50;136.70;;;;;;;-143.29;100.00;62188.47;4896515;29;20029;-92
2023/03/31 01:39:58;;;;;;;597.95;139.35;;;;;;;-143.29;100.00;62188.47;4896350;29;20036;-92
2023/03/31 01:42:36;;;;;;;602.28;139.70;;;;;;;-143.29;100.00;62188.47;4895833;29;20048;-92
2023/03/31 01:45:20;;;;;;;593.70;140.60;;;;;;;-143.29;100.00;62188.47;4912101;29;20028;-92
2023/03/31 01:47:47;;;;;;;585.28;137.90;;;;;;;-143.29;100.00;62188.47;4896299;29;20056;-92
2023/03/31 01:50:28;;;;;;;595.83;139.07;;;;;;;-143.29;100.00;62188.47;4896364;29;20123;-93
2023/03/31 01:53:20;;;;;;;593.25;136.65;;;;;;;-143.29;100.00;62188.47;4896352;29;20033;-93
2023/03/31 01:55:49;;;;;;;585.42;133.52;;;;;;;-143.29;100.00;62188.47;4896303;29;20067;-94
2023/03/31 01:58:17;;;;;;;585.65;136.00;;;;;;;-143.29;100.00;62188.47;4895577;29;20106;-94
2023/03/31 02:00:55;;;;;;;583.47;134.98;;;;;;;-143.29;100.00;62188.47;4896380;29;20219;-93
2023/03/31 02:03:25;;;;;;;589.13;135.45;;;;;;;-143.29;100.00;62188.47;4896040;29;20028;-94
2023/03/31 02:05:55;;;;;;;584.85;136.73;;;;;;;-143.29;100.00;62188.47;4896091;29;20099;-93
2023/03/31 02:08:33;;;;;;;588.28;137.55;;;;;;;-143.29;100.00;62188.47;4896017;29;20100;-93
2023/03/31 02:11:00;;;;;;;592.92;139.80;;;;;;;-143.29;100.00;62188.47;4895234;29;20098;-93
2023/03/31 02:13:28;;;;;;;576.90;130.70;;;;;;;-143.29;100.00;62188.47;4897109;29;20084;-92
2023/03/31 02:16:00;;;;;;;585.35;135.10;;;;;;;-143.29;100.00;62188.47;4896051;29;20081;-94
2023/03/31 02:18:29;;;;;;;577.67;131.93;;;;;;;-143.29;100.00;62188.47;4897157;29;20072;-93
2023/03/31 02:20:57;;;;;;;575.33;134.20;;;;;;;-143.29;100.00;62188.47;4895358;29;20028;-93
2023/03/31 02:23:28;;;;;;;571.53;131.98;;;;;;;-143.29;100.00;62188.47;4895912;29;20024;-94
2023/03/31 02:26:01;;;;;;;587.03;137.73;;;;;;;-143.29;100.00;62188.47;4894432;29;20383;-93
2023/03/31 02:28:27;;;;;;;578.33;133.65;;;;;;;-143.29;100.00;62188.47;4895945;29;20029;-94
2023/03/31 02:31:05;;;;;;;581.20;134.18;;;;;;;-143.29;100.00;62188.47;4895907;29;20506;-93
2023/03/31 02:33:30;;;;;;;573.85;133.45;;;;;;;-143.29;100.00;62188.47;4895135;29;20472;-93
2023/03/31 02:35:58;;;;;;;570.08;130.82;;;;;;;-143.29;100.00;62188.47;4911578;29;20043;-93
2023/03/31 02:38:23;;;;;;;575.47;131.75;;;;;;;-143.29;100.00;62188.47;4911700;29;20111;-93
2023/03/31 02:40:49;;;;;;;573.08;131.30;;;;;;;-143.29;100.00;62188.47;4895691;29;20120;-94
2023/03/31 02:43:14;;;;;;;588.15;139.57;;;;;;;-143.29;100.00;62188.47;4893604;29;20060;-94
2023/03/31 02:45:48;;;;;;;578.80;135.93;;;;;;;-143.29;100.00;62188.47;4896402;29;20547;-93
2023/03/31 02:48:17;;;;;;;570.33;131.02;;;;;;;-143.29;100.00;62188.47;4895820;29;20025;-94
2023/03/31 02:51:00;;;;;;;579.15;134.00;;;;;;;-143.29;100.00;62188.47;4895703;29;20372;-94
2023/03/31 02:53:47;;;;;;;572.17;130.07;;;;;;;-143.29;100.00;62188.47;4895781;29;20025;-93
2023/03/31 02:56:40;;;;;;;570.17;130.15;;;;;;;-143.29;100.00;62188.47;4895594;29;20035;-94
2023/03/31 02:59:36;;;;;;;577.05;133.35;;;;;;;-143.29;100.00;62188.47;4910372;29;20043;-93
2023/03/31 03:02:10;;;;;;;570.70;130.30;;;;;;;-143.29;100.00;62188.47;4895531;29;20020;-93
2023/03/31 03:04:57;;;;;;;567.28;130.48;;;;;;;-143.29;100.00;62188.47;4895569;29;20028;-94
2023/03/31 03:07:39;;;;;;;565.65;130.98;;;;;;;-143.29;100.00;62188.47;4896606;29;20028;-93
2023/03/31 03:10:37;;;;;;;576.30;132.88;;;;;;;-143.29;100.00;62188.47;4895287;29;20037;-93
2023/03/31 03:13:27;;;;;;;573.72;131.30;;;;;;;-143.29;100.00;62188.47;4893437;29;20037;-94
2023/03/31 03:16:56;;;;;;;567.83;128.18;;;;;;;-143.29;100.00;62188.47;4911078;29;20052;-93
2023/03/31 03:20:21;;;;;;;569.83;131.10;;;;;;;-143.29;100.00;62188.47;4895301;29;20036;-93
2023/03/31 03:23:45;;;;;;;580.38;133.30;;;;;;;-143.29;100.00;62188.47;4895399;29;20056;-93
2023/03/31 03:27:09;;;;;;;578.08;131.73;;;;;;;-143.29;100.00;62188.47;4895189;29;20032;-94
2023/03/31 03:30:33;;;;;;;576.22;130.95;;;;;;;-143.29;100.00;62188.47;4894676;29;20483;-93
2023/03/31 03:33:56;;;;;;;580.47;132.13;;;;;;;-143.29;100.00;62188.47;4898488;29;20389;-93
2023/03/31 03:37:20;;;;;;;576.47;129.20;;;;;;;-143.29;100.00;62188.47;4898571;29;20028;-93
2023/03/31 03:40:45;;;;;;;575.15;131.45;;;;;;;-143.29;100.00;62188.47;4898781;29;20061;-93
2023/03/31 03:44:09;;;;;;;579.00;131.27;;;;;;;-143.29;100.00;62188.47;4897685;29;20084;-91
2023/03/31 03:47:33;;;;;;;575.10;133.05;;;;;;;-143.29;100.00;62188.47;4898480;29;20032;-94
2023/03/31 03:51:00;;;;;;;575.00;131.15;;;;;;;-143.29;100.00;62188.47;4898531;29;20029;-93
2023/03/31 03:54:24;;;;;;;579.03;132.40;;;;;;;-143.29;100.00;62188.47;4898390;29;20084;-92
2023/03/31 03:57:48;;;;;;;579.55;131.05;;;;;;;-143.29;100.00;62188.47;4898333;29;20048;-93
2023/03/31 04:01:13;;;;;;;586.80;137.02;;;;;;;-143.29;100.00;62188.47;4898338;29;20036;-92
2023/03/31 04:04:36;;;;;;;579.70;131.07;;;;;;;-143.29;100.00;62188.47;4898444;29;20127;-92
2023/03/31 04:08:00;;;;;;;588.60;133.18;;;;;;;-143.29;100.00;62188.47;4898067;29;20032;-91
2023/03/31 04:11:24;;;;;;;583.83;136.13;;;;;;;-143.29;100.00;62188.47;4899228;29;20029;-92
2023/03/31 04:14:45;;;;;;;579.40;131.23;;;;;;;-143.29;100.00;62188.47;4912756;29;20507;-93
2023/03/31 04:17:49;;;;;;;591.95;134.93;;;;;;;-143.29;100.00;62188.47;4897699;29;20099;-93
2023/03/31 04:21:02;;;;;;;581.80;135.85;;;;;;;-143.29;100.00;62188.47;4897833;29;20035;-92
2023/03/31 04:23:41;;;;;;;583.17;130.80;;;;;;;-143.29;100.00;62188.47;4898994;29;20065;-92
2023/03/31 04:26:08;;;;;;;581.33;133.02;;;;;;;-143.29;100.00;62188.47;4897203;29;20387;-92
2023/03/31 04:28:35;;;;;;;576.78;133.52;;;;;;;-143.29;100.00;62188.47;4896142;29;20028;-93
2023/03/31 04:31:02;;;;;;;579.55;133.40;;;;;;;-143.29;100.00;62188.47;4902642;29;20020;-93
2023/03/31 04:33:28;;;;;;;571.65;132.73;;;;;;;-143.29;100.00;62188.47;4917393;29;20131;-94
2023/03/31 04:35:53;;;;;;;581.67;135.45;;;;;;;-143.29;100.00;62188.47;4916701;29;20056;-93
2023/03/31 04:38:21;;;;;;;589.83;142.63;;;;;;;-143.29;100.00;62188.47;4900850;29;20075;-92
2023/03/31 04:40:49;;;;;;;578.33;133.23;;;;;;;-143.29;100.00;62188.47;4895449;29;20079;-93
2023/03/31 04:43:15;;;;;;;584.17;138.23;;;;;;;-143.29;100.00;62188.47;4917263;29;20024;-92
2023/03/31 04:45:41;;;;;;;593.30;135.40;;;;;;;-143.29;100.00;62188.47;4916014;29;20483;-92
2023/03/31 04:48:07;;;;;;;578.63;132.60;;;;;;;-143.29;100.00;62188.47;4932072;29;20036;-93
2023/03/31 04:50:32;;;;;;;575.47;134.52;;;;;;;-143.29;100.00;62188.47;4916149;29;20060;-92
2023/03/31 04:52:58;;;;;;;578.78;135.38;;;;;;;-143.29;100.00;62188.47;4916277;29;20020;-92
2023/03/31 04:55:24;;;;;;;587.53;137.70;;;;;;;-143.29;100.00;62188.47;4912392;29;20025;-92
2023/03/31 04:57:50;;;;;;;582.15;136.57;;;;;;;-143.29;100.00;62188.47;4896953;29;20043;-92
2023/03/31 05:00:16;;;;;;;579.08;136.02;;;;;;;-143.29;100.00;62188.47;4896699;29;20439;-92
2023/03/31 05:02:42;;;;;;;574.28;134.15;;;;;;;-143.29;100.00;62188.47;4897137;29;20052;-92
2023/03/31 05:05:09;;;;;;;569.03;132.45;;;;;;;-143.29;100.00;62188.47;4896972;29;20487;-93
2023/03/31 05:07:34;;;;;;;574.05;133.73;;;;;;;-143.29;100.00;62188.47;4897114;29;20028;-93
2023/03/31 05:10:00;;;;;;;586.85;142.65;;;;;;;-143.29;100.00;62188.47;4895388;29;20025;-93
2023/03/31 05:12:25;;;;;;;571.13;134.70;;;;;;;-143.29;100.00;62188.47;4897881;29;20032;-93
2023/03/31 05:14:51;;;;;;;576.75;136.93;;;;;;;-143.29;100.00;62188.47;4895856;29;20032;-92
2023/03/31 05:17:16;;;;;;;577.83;137.23;;;;;;;-143.29;100.00;62188.47;4897942;29;20032;-93
2023/03/31 05:19:42;;;;;;;576.28;135.10;;;;;;;-143.29;100.00;62188.47;4896838;29;20033;-92
2023/03/31 05:22:08;;;;;;;576.88;135.48;;;;;;;-143.29;100.00;62188.47;4896370;29;20354;-93
2023/03/31 05:24:33;;;;;;;572.35;134.48;;;;;;;-143.29;100.00;62188.47;4896095;29;20044;-93
2023/03/31 05:26:59;;;;;;;577.03;135.75;;;;;;;-143.29;100.00;62188.47;4911525;29;20119;-93
2023/03/31 05:29:24;;;;;;;574.10;135.35;;;;;;;-143.29;100.00;62188.47;4896483;29;20540;-93
2023/03/31 05:31:52;;;;;;;579.00;136.20;;;;;;;-143.29;100.00;62188.47;4896439;29;20040;-92
2023/03/31 05:34:17;;;;;;;577.65;135.35;;;;;;;-143.29;100.00;62188.47;4896271;29;20029;-92
2023/03/31 05:36:42;;;;;;;569.50;134.50;;;;;;;-143.29;100.00;62188.47;4896603;29;20051;-93
2023/03/31 05:39:08;;;;;;;571.53;133.98;;;;;;;-143.29;100.00;62188.47;4897891;29;20036;-91
2023/03/31 05:41:34;;;;;;;566.45;132.10;;;;;;;-143.29;100.00;62188.47;4896722;29;20116;-93
2023/03/31 05:44:00;;;;;;;572.65;135.00;;;;;;;-143.29;100.00;62188.47;4896488;29;20032;-93
2023/03/31 05:46:26;;;;;;;576.05;133.77;;;;;;;-143.29;100.00;62188.47;4896306;29;20546;-93
2023/03/31 05:48:52;;;;;;;564.78;130.38;;;;;;;-143.29;100.00;62188.47;4896461;29;20119;-94
2023/03/31 05:51:17;;;;;;;580.83;136.38;;;;;;;-143.29;100.00;62188.47;4896464;29;20028;-94
2023/03/31 05:53:43;;;;;;;579.75;134.45;;;;;;;-143.29;100.00;62188.47;4896451;29;20164;-93
2023/03/31 05:56:09;;;;;;;569.53;132.55;;;;;;;-143.29;100.00;62188.47;4894620;29;20024;-93
2023/03/31 05:58:36;;;;;;;573.05;133.15;;;;;;;-143.29;100.00;62188.47;4911974;29;20033;-93
2023/03/31 06:01:10;;;;;;;585.10;135.43;;;;;;;-143.29;100.00;62188.47;4896221;29;20033;-93
2023/03/31 06:03:40;;;;;;;576.58;132.85;;;;;;;-143.29;100.00;62188.47;4895551;29;20057;-93
2023/03/31 06:06:07;;;;;;;573.60;133.73;;;;;;;-143.29;100.00;62188.47;4911538;29;20033;-93
2023/03/31 06:08:33;;;;;;;570.92;133.00;;;;;;;-143.29;100.00;62188.47;4896050;29;20092;-94
2023/03/31 06:10:59;;;;;;;578.10;135.68;;;;;;;-143.29;100.00;62188.47;4894032;29;20060;-94
2023/03/31 06:13:24;;;;;;;576.08;133.85;;;;;;;-143.29;100.00;62188.47;4895727;29;20063;-93
2023/03/31 06:15:58;;;;;;;574.58;134.63;;;;;;;-143.29;100.00;62188.47;4895424;29;20503;-93
2023/03/31 06:18:27;;;;;;;581.90;135.52;;;;;;;-143.29;100.00;62188.47;4911025;29;20049;-92
2023/03/31 06:20:53;;;;;;;574.17;136.57;;;;;;;-143.29;100.00;62188.47;4897187;29;20056;-94
2023/03/31 06:23:19;;;;;;;585.97;136.07;;;;;;;-143.29;100.00;62188.47;4895796;29;20543;-92
2023/03/31 06:25:45;;;;;;;572.45;132.63;;;;;;;-143.29;100.00;62188.47;4895534;29;20125;-93
2023/03/31 06:28:10;;;;;;;571.47;135.20;;;;;;;-143.29;100.00;62188.47;4897042;29;20033;-92
2023/03/31 06:30:35;;;;;;;569.80;134.10;;;;;;;-143.29;100.00;62188.47;4894876;29;20468;-92
2023/03/31 06:33:01;;;;;;;578.15;133.93;;;;;;;-143.29;100.00;62188.47;4911267;29;20024;-93
2023/03/31 06:35:26;;;;;;;568.70;133.88;;;;;;;-143.29;100.00;62188.47;4911386;29;20574;-93
2023/03/31 06:37:52;;;;;;;573.88;134.93;;;;;;;-143.29;100.00;62188.47;4896896;29;20032;-93
2023/03/31 06:40:18;;;;;;;583.15;135.55;;;;;;;-143.29;100.00;62188.47;4897062;29;20025;-93
2023/03/31 06:42:43;;;;;;;571.47;133.00;;;;;;;-143.29;100.00;62188.47;4911633;29;20171;-92
2023/03/31 06:45:09;;;;;;;570.20;132.75;;;;;;;-143.29;100.00;62188.47;4897770;29;20072;-93
2023/03/31 06:47:37;;;;;;;572.00;132.50;;;;;;;-143.29;100.00;62188.47;4896584;29;20029;-93
2023/03/31 06:50:03;;;;;;;568.63;132.27;;;;;;;-143.29;100.00;62188.47;4897169;29;20020;-94
2023/03/31 06:52:29;;;;;;;571.40;135.43;;;;;;;-143.29;100.00;62188.47;4896130;29;20025;-94
2023/03/31 06:54:55;;;;;;;564.45;131.57;;;;;;;-143.29;100.00;62188.47;4895538;29;20084;-92
2023/03/31 06:57:20;;;;;;;568.85;132.93;;;;;;;-143.29;100.00;62188.47;4911603;29;20433;-92
2023/03/31 06:59:45;;;;;;;568.80;132.80;;;;;;;-143.29;100.00;62188.47;4896007;29;20180;-93
2023/03/31 07:02:11;;;;;;;568.28;132.63;;;;;;;-143.29;100.00;62188.47;4895064;29;20096;-93
2023/03/31 07:04:36;;;;;;;563.97;131.88;;;;;;;-143.29;100.00;62188.47;4895673;29;20025;-93
2023/03/31 07:07:02;;;;;;;567.88;132.55;;;;;;;-143.29;100.00;62188.47;4913428;29;20420;-93
2023/03/31 07:09:27;;;;;;;588.38;140.43;;;;;;;-143.29;100.00;62188.47;4899684;29;20059;-93
2023/03/31 07:11:52;;;;;;;583.83;139.32;;;;;;;-143.29;100.00;62188.47;4899194;29;20483;-93
2023/03/31 07:14:18;;;;;;;583.03;137.82;;;;;;;-143.29;100.00;62188.47;4900620;29;20080;-93
2023/03/31 07:16:43;;;;;;;578.47;133.60;;;;;;;-143.29;100.00;62188.47;4898850;29;20021;-92
2023/03/31 07:19:09;;;;;;;570.40;131.75;;;;;;;-143.29;100.00;62188.47;4898989;29;20403;-93
2023/03/31 07:21:38;;;;;;;574.42;133.57;;;;;;;-143.29;100.00;62188.47;4899441;29;20029;-93
2023/03/31 07:24:03;;;;;;;572.67;133.07;;;;;;;-143.29;100.00;62188.47;4898899;29;20412;-92
2023/03/31 07:26:29;;;;;;;580.03;135.52;;;;;;;-143.29;100.00;62188.47;4899104;29;20052;-93
2023/03/31 07:28:56;;;;;;;573.67;132.93;;;;;;;-143.29;100.00;62188.47;4898739;29;20131;-93
2023/03/31 07:31:22;;;;;;;583.40;136.18;;;;;;;-143.29;100.00;62188.47;4897419;29;20033;-93
2023/03/31 07:33:48;;;;;;;582.58;135.15;;;;;;;-143.29;100.00;62188.47;4898739;29;20033;-93
2023/03/31 07:36:13;;;;;;;575.30;133.50;;;;;;;-143.29;100.00;62188.47;4898708;29;20076;-93
2023/03/31 07:38:45;;;;;;;569.22;134.35;;;;;;;-143.29;100.00;62188.47;4914451;29;20059;-93
2023/03/31 07:41:12;;;;;;;573.30;132.48;;;;;;;-143.29;100.00;62188.47;4896853;29;20557;-93
2023/03/31 07:43:38;;;;;;;578.10;133.93;;;;;;;-143.29;100.00;62188.47;4898479;29;20041;-93
2023/03/31 07:46:06;;;;;;;581.08;136.00;;;;;;;-143.29;100.00;62188.47;4898515;29;20024;-93
2023/03/31 07:48:32;;;;;;;578.30;135.30;;;;;;;-143.29;100.00;62188.47;4898660;29;20032;-93
2023/03/31 07:50:58;;;;;;;579.20;137.32;;;;;;;-143.29;100.00;62188.47;4897166;29;20111;-93
2023/03/31 07:53:23;;;;;;;576.72;136.27;;;;;;;-143.29;100.00;62188.47;4898168;29;20502;-94
2023/03/31 07:55:49;;;;;;;572.67;135.15;;;;;;;-143.29;100.00;62188.47;4898621;29;20047;-93
2023/03/31 07:58:14;;;;;;;592.60;142.20;;;;;;;-143.29;100.00;62188.47;4899719;29;20029;-93
2023/03/31 08:00:40;;;;;;;572.33;134.40;;;;;;;-143.29;100.00;62188.47;4897043;29;20024;-93
2023/03/31 08:03:05;;;;;;;576.38;137.13;;;;;;;-143.29;100.00;62188.47;4897961;29;20024;-94
2023/03/31 08:05:31;;;;;;;582.53;136.80;;;;;;;-143.29;100.00;62188.47;4914014;29;20161;-93
2023/03/31 08:07:57;;;;;;;580.20;138.90;;;;;;;-143.29;100.00;62188.47;4897573;29;20044;-94
2023/03/31 08:10:25;;;;;;;573.97;136.00;;;;;;;-143.29;100.00;62188.47;4897854;29;20123;-94
2023/03/31 08:12:51;;;;;;;571.95;135.90;;;;;;;-143.29;100.00;62188.47;4898238;29;20112;-93
2023/03/31 08:15:16;;;;;;;575.42;136.35;;;;;;;-143.29;100.00;62188.47;4897596;29;20022;-93
2023/03/31 08:17:42;;;;;;;571.30;133.68;;;;;;;-143.29;100.00;62188.47;4897135;29;20029;-94
2023/03/31 08:20:09;;;;;;;570.80;135.90;;;;;;;-143.29;100.00;62188.47;4899931;29;20088;-93
2023/03/31 08:22:36;;;;;;;582.95;139.40;;;;;;;-143.29;100.00;62188.47;4897690;29;20112;-94
2023/03/31 08:25:02;;;;;;;580.42;138.63;;;;;;;-143.29;100.00;62188.47;4913915;29;20057;-93
2023/03/31 08:27:27;;;;;;;574.00;138.50;;;;;;;-143.29;100.00;62188.47;4913788;29;20044;-95
2023/03/31 08:29:53;;;;;;;568.03;133.98;;;;;;;-143.29;100.00;62188.47;4898650;29;20032;-94
2023/03/31 08:32:22;;;;;;;570.55;133.77;;;;;;;-143.29;100.00;62188.47;4898898;29;20543;-94
2023/03/31 08:34:47;;;;;;;575.33;136.88;;;;;;;-143.29;100.00;62188.47;4898042;29;20439;-93
2023/03/31 08:37:13;;;;;;;570.30;135.02;;;;;;;-143.29;100.00;62188.47;4898551;29;20032;-94
2023/03/31 08:39:38;;;;;;;578.58;138.95;;;;;;;-143.29;100.00;62188.47;4897563;29;20032;-94
2023/03/31 08:42:21;;;;;;;593.08;145.27;;;;;;;-143.29;100.00;62188.47;4896236;29;20043;-93
2023/03/31 08:45:05;;;;;;;581.83;138.23;;;;;;;-143.29;100.00;62188.47;4922074;29;20036;-94
2023/03/31 08:47:34;;;;;;;582.58;138.45;;;;;;;-143.29;100.00;62188.47;4914098;29;20395;-95
2023/03/31 08:50:17;;;;;;;587.83;143.93;;;;;;;-143.29;100.00;62188.47;4900510;29;20029;-95
2023/03/31 08:52:49;;;;;;;578.67;138.98;;;;;;;-143.29;100.00;62188.47;4893845;29;20352;-95
2023/03/31 08:55:31;;;;;;;571.33;132.75;;;;;;;-143.29;100.00;62188.47;4895248;29;20032;-93
2023/03/31 08:58:08;;;;;;;588.20;141.88;;;;;;;-143.29;100.00;62188.47;4914561;29;20032;-94
2023/03/31 09:00:53;;;;;;;580.42;140.63;;;;;;;-143.29;100.00;62188.47;4902893;29;20036;-94
2023/03/31 09:03:36;;;;;;;582.97;139.93;;;;;;;-143.29;100.00;62188.47;4916499;29;20032;-94
2023/03/31 09:06:16;;;;;;;580.30;138.85;;;;;;;-143.29;100.00;62188.47;4916032;29;20028;-94
2023/03/31 09:08:41;;;;;;;589.72;142.07;;;;;;;-143.29;100.00;62188.47;4912529;29;20553;-94
2023/03/31 09:11:26;;;;;;;589.28;145.98;;;;;;;-143.29;100.00;62188.47;4896567;29;20131;-94
2023/03/31 09:14:16;;;;;;;578.67;143.80;;;;;;;-143.29;100.00;62188.47;4897516;29;20387;-93
2023/03/31 09:17:05;;;;;;;582.33;144.18;;;;;;;-143.29;100.00;62188.47;4896239;29;20064;-94
2023/03/31 09:19:51;;;;;;;599.40;150.95;;;;;;;-143.29;100.00;62188.47;4895345;29;20024;-94
2023/03/31 09:22:26;;;;;;;589.40;148.45;;;;;;;-143.29;100.00;62188.47;4897929;29;20044;-93
2023/03/31 09:25:04;;;;;;;588.05;149.63;;;;;;;-143.29;100.00;62188.47;4897479;29;20029;-93
2023/03/31 09:27:35;;;;;;;593.88;150.82;;;;;;;-143.29;100.00;62188.47;4897616;29;20433;-94
2023/03/31 09:30:17;;;;;;;596.03;154.25;;;;;;;-143.29;100.00;62188.47;4895937;29;20028;-94
2023/03/31 09:32:44;;;;;;;596.83;154.38;;;;;;;-143.29;100.00;62188.47;4878831;29;20064;-95
2023/03/31 09:35:20;;;;;;;594.92;156.60;;;;;;;-143.29;100.00;62188.47;4897859;29;20040;-94
2023/03/31 09:37:47;;;;;;;591.15;155.45;;;;;;;-143.29;100.00;62188.47;4902401;29;20021;-93
2023/03/31 09:40:20;;;;;;;594.30;156.57;;;;;;;-143.29;100.00;62188.47;4896913;29;20056;-95
2023/03/31 09:42:51;;;;;;;608.90;164.13;;;;;;;-143.29;100.00;62188.47;4896411;29;20495;-94
2023/03/31 09:45:19;;;;;;;591.95;154.05;;;;;;;-143.29;100.00;62188.47;4896532;29;20029;-95
2023/03/31 09:47:53;;;;;;;595.10;157.90;;;;;;;-143.29;100.00;62188.47;4896796;29;20046;-95
2023/03/31 09:50:20;;;;;;;592.90;156.80;;;;;;;-143.29;100.00;62188.47;4895510;29;20036;-94
2023/03/31 09:52:56;;;;;;;593.30;158.32;;;;;;;-143.29;100.00;62188.47;4897216;29;20115;-94
2023/03/31 09:55:43;;;;;;;594.67;158.80;;;;;;;-143.29;100.00;62188.47;4897461;29;20052;-94
2023/03/31 09:58:14;;;;;;;594.90;157.10;;;;;;;-143.29;100.00;62188.47;4896212;29;20033;-95
2023/03/31 10:00:42;;;;;;;595.70;157.93;;;;;;;-143.29;100.00;62188.47;4913119;29;20028;-95
2023/03/31 10:03:12;;;;;;;598.80;161.07;;;;;;;-143.29;100.00;62188.47;4899698;29;20041;-96
2023/03/31 10:05:47;;;;;;;596.85;162.50;;;;;;;-143.29;100.00;62188.47;4899004;29;20028;-95
2023/03/31 10:08:38;;;;;;;599.60;159.98;;;;;;;-143.29;100.00;62188.47;4915107;29;20042;-94
2023/03/31 10:11:03;;;;;;;596.42;162.60;;;;;;;-143.29;100.00;62188.47;4900805;29;20119;-94
2023/03/31 10:13:52;;;;;;;593.67;157.35;;;;;;;-143.29;100.00;62188.47;4898210;29;20051;-96
2023/03/31 10:16:44;;;;;;;595.55;158.65;;;;;;;-143.29;100.00;62188.47;4912513;29;20035;-96
2023/03/31 10:19:18;;;;;;;;;;;;;;;-143.29;100.00;62188.47;4897208;29;20040;-95
2023/03/31 10:21:46;;;;;;;606.30;173.15;;;;;;;-143.29;100.00;62188.47;4896451;29;19923;-95
2023/03/31 10:24:18;;;;;;;605.80;157.05;;;;;;;-143.29;100.00;62188.47;4899817;29;20059;-96
2023/03/31 10:26:46;;;;;;;;;;;;;;;-143.29;100.00;62188.47;4899472;29;20036;-96
2023/03/31 10:29:15;;;;;;;588.95;152.10;;;;;;;-143.29;100.00;62188.47;4902139;29;19918;-96
2023/03/31 10:31:40;;;;;;;593.65;151.95;;;;;;;-143.29;100.00;62188.47;4899790;29;20045;-96
2023/03/31 10:34:15;;;;;;;594.05;154.07;;;;;;;-143.29;100.00;62188.47;4902748;29;20057;-96
2023/03/31 10:36:50;;;;;;;592.88;150.75;;;;;;;-143.29;100.00;62188.47;4900780;29;20032;-95
2023/03/31 10:39:18;;;;;;;595.45;151.18;;;;;;;-143.29;100.00;62188.47;4901094;29;20483;-96
2023/03/31 10:41:53;;;;;;;599.10;154.02;;;;;;;-143.29;100.00;62188.47;4904247;29;20049;-96
2023/03/31 10:44:36;;;;;;;589.50;154.40;;;;;;;-143.29;100.00;62188.47;4922654;29;20032;-96
2023/03/31 10:47:17;;;;;;;598.40;154.60;;;;;;;-143.29;100.00;62188.47;4906434;29;20053;-96
